sensor_id;sensor_type;location;lat;lon;timestamp;P1;P2;P0
29460;PMS7003;16428;47.836;35.106;2023-10-19T00:01:08;32.00;26.75;19.75
29460;PMS7003;16428;47.836;35.106;2023-10-19T00:03:38;28.25;24.25;15.25
29460;PMS7003;16428;47.836;35.106;2023-10-19T00:06:05;36.75;28.75;20.75
29460;PMS7003;16428;47.836;35.106;2023-10-19T00:08:33;31.50;25.50;19.00
29460;PMS7003;16428;47.836;35.106;2023-10-19T00:11:07;27.00;26.00;18.75
29460;PMS7003;16428;47.836;35.106;2023-10-19T00:13:36;29.00;26.00;17.50
29460;PMS7003;16428;47.836;35.106;2023-10-19T00:16:05;21.25;18.50;12.50
29460;PMS7003;16428;47.836;35.106;2023-10-19T00:18:44;27.50;22.75;18.75
29460;PMS7003;16428;47.836;35.106;2023-10-19T00:21:15;24.25;24.25;19.00
29460;PMS7003;16428;47.836;35.106;2023-10-19T00:23:47;27.50;26.75;17.75
29460;PMS7003;16428;47.836;35.106;2023-10-19T00:26:16;28.00;25.75;18.25
29460;PMS7003;16428;47.836;35.106;2023-10-19T00:28:47;20.75;20.75;16.50
29460;PMS7003;16428;47.836;35.106;2023-10-19T00:31:19;29.25;21.75;17.75
29460;PMS7003;16428;47.836;35.106;2023-10-19T00:33:47;22.75;20.00;14.75
29460;PMS7003;16428;47.836;35.106;2023-10-19T00:36:18;23.00;21.00;17.25
29460;PMS7003;16428;47.836;35.106;2023-10-19T00:38:49;22.25;20.75;14.75
29460;PMS7003;16428;47.836;35.106;2023-10-19T00:41:19;23.50;22.25;16.50
29460;PMS7003;16428;47.836;35.106;2023-10-19T00:43:49;25.00;23.00;16.00
29460;PMS7003;16428;47.836;35.106;2023-10-19T00:46:16;24.25;21.25;17.50
29460;PMS7003;16428;47.836;35.106;2023-10-19T00:48:47;19.00;18.50;15.00
29460;PMS7003;16428;47.836;35.106;2023-10-19T00:51:26;23.25;20.75;15.25
29460;PMS7003;16428;47.836;35.106;2023-10-19T00:54:15;22.00;20.75;18.00
29460;PMS7003;16428;47.836;35.106;2023-10-19T00:56:53;26.25;23.00;18.00
29460;PMS7003;16428;47.836;35.106;2023-10-19T00:59:22;15.75;15.00;11.00
29460;PMS7003;16428;47.836;35.106;2023-10-19T01:01:57;19.75;19.75;14.00
29460;PMS7003;16428;47.836;35.106;2023-10-19T01:04:47;22.25;19.75;15.50
29460;PMS7003;16428;47.836;35.106;2023-10-19T01:07:32;19.25;17.50;13.50
29460;PMS7003;16428;47.836;35.106;2023-10-19T01:10:06;22.00;20.00;17.00
29460;PMS7003;16428;47.836;35.106;2023-10-19T01:12:55;24.25;21.00;13.50
29460;PMS7003;16428;47.836;35.106;2023-10-19T01:15:22;16.50;10.75;7.50
29460;PMS7003;16428;47.836;35.106;2023-10-19T01:17:56;14.25;12.75;8.25
29460;PMS7003;16428;47.836;35.106;2023-10-19T01:20:26;22.25;22.25;14.00
29460;PMS7003;16428;47.836;35.106;2023-10-19T01:23:01;22.75;22.75;17.25
29460;PMS7003;16428;47.836;35.106;2023-10-19T01:28:19;24.50;20.75;15.00
29460;PMS7003;16428;47.836;35.106;2023-10-19T01:30:52;23.00;22.00;16.25
29460;PMS7003;16428;47.836;35.106;2023-10-19T01:33:20;15.00;15.00;10.75
29460;PMS7003;16428;47.836;35.106;2023-10-19T01:35:48;23.75;20.50;17.50
29460;PMS7003;16428;47.836;35.106;2023-10-19T01:38:34;18.50;18.50;13.75
29460;PMS7003;16428;47.836;35.106;2023-10-19T01:41:01;18.00;18.00;15.75
29460;PMS7003;16428;47.836;35.106;2023-10-19T01:43:33;12.50;12.00;8.00
29460;PMS7003;16428;47.836;35.106;2023-10-19T01:46:01;20.25;18.50;13.75
29460;PMS7003;16428;47.836;35.106;2023-10-19T01:48:31;21.25;20.25;14.75
29460;PMS7003;16428;47.836;35.106;2023-10-19T01:51:04;20.25;16.00;13.00
29460;PMS7003;16428;47.836;35.106;2023-10-19T01:53:34;19.75;19.75;12.25
29460;PMS7003;16428;47.836;35.106;2023-10-19T01:56:11;20.50;20.50;12.75
29460;PMS7003;16428;47.836;35.106;2023-10-19T01:58:43;13.00;11.75;11.00
29460;PMS7003;16428;47.836;35.106;2023-10-19T02:01:14;21.25;20.75;16.00
29460;PMS7003;16428;47.836;35.106;2023-10-19T02:03:55;17.25;14.50;10.75
29460;PMS7003;16428;47.836;35.106;2023-10-19T02:06:26;21.25;17.75;14.75
29460;PMS7003;16428;47.836;35.106;2023-10-19T02:09:04;21.00;19.75;14.50
29460;PMS7003;16428;47.836;35.106;2023-10-19T02:11:45;25.25;19.50;15.50
29460;PMS7003;16428;47.836;35.106;2023-10-19T02:14:14;20.00;20.00;16.00
29460;PMS7003;16428;47.836;35.106;2023-10-19T02:16:42;25.00;22.00;16.00
29460;PMS7003;16428;47.836;35.106;2023-10-19T02:19:13;22.75;22.00;14.75
29460;PMS7003;16428;47.836;35.106;2023-10-19T02:21:41;22.25;20.00;16.25
29460;PMS7003;16428;47.836;35.106;2023-10-19T02:24:09;23.75;23.50;16.75
29460;PMS7003;16428;47.836;35.106;2023-10-19T02:26:41;17.75;17.75;12.25
29460;PMS7003;16428;47.836;35.106;2023-10-19T02:29:10;20.75;18.50;15.75
29460;PMS7003;16428;47.836;35.106;2023-10-19T02:31:42;23.00;19.25;14.75
29460;PMS7003;16428;47.836;35.106;2023-10-19T02:34:13;19.50;16.25;11.75
29460;PMS7003;16428;47.836;35.106;2023-10-19T02:36:44;20.75;18.25;14.50
29460;PMS7003;16428;47.836;35.106;2023-10-19T02:39:12;21.25;18.00;14.00
29460;PMS7003;16428;47.836;35.106;2023-10-19T02:41:42;21.75;20.25;14.00
29460;PMS7003;16428;47.836;35.106;2023-10-19T02:44:15;27.75;19.50;15.25
29460;PMS7003;16428;47.836;35.106;2023-10-19T02:46:46;19.25;18.25;14.25
29460;PMS7003;16428;47.836;35.106;2023-10-19T02:49:14;21.25;16.00;12.00
29460;PMS7003;16428;47.836;35.106;2023-10-19T02:51:46;18.25;15.50;14.25
29460;PMS7003;16428;47.836;35.106;2023-10-19T02:54:15;18.50;17.25;14.75
29460;PMS7003;16428;47.836;35.106;2023-10-19T02:56:57;24.00;21.25;17.50
29460;PMS7003;16428;47.836;35.106;2023-10-19T02:59:26;15.00;13.00;11.00
29460;PMS7003;16428;47.836;35.106;2023-10-19T03:01:57;16.00;16.00;11.25
29460;PMS7003;16428;47.836;35.106;2023-10-19T03:04:34;13.00;13.00;9.25
29460;PMS7003;16428;47.836;35.106;2023-10-19T03:07:04;20.25;17.75;14.75
29460;PMS7003;16428;47.836;35.106;2023-10-19T03:09:34;23.50;17.00;14.50
29460;PMS7003;16428;47.836;35.106;2023-10-19T03:12:03;17.50;16.75;13.00
29460;PMS7003;16428;47.836;35.106;2023-10-19T03:14:35;22.75;20.25;14.50
29460;PMS7003;16428;47.836;35.106;2023-10-19T03:17:04;18.00;18.00;16.25
29460;PMS7003;16428;47.836;35.106;2023-10-19T03:19:32;20.50;18.25;14.50
29460;PMS7003;16428;47.836;35.106;2023-10-19T03:22:01;22.00;18.25;14.00
29460;PMS7003;16428;47.836;35.106;2023-10-19T03:24:32;19.75;18.00;14.25
29460;PMS7003;16428;47.836;35.106;2023-10-19T03:27:09;23.00;20.75;14.00
29460;PMS7003;16428;47.836;35.106;2023-10-19T03:29:50;17.75;17.75;14.00
29460;PMS7003;16428;47.836;35.106;2023-10-19T03:32:22;20.50;19.25;16.75
29460;PMS7003;16428;47.836;35.106;2023-10-19T03:34:55;18.50;18.50;13.00
29460;PMS7003;16428;47.836;35.106;2023-10-19T03:37:23;17.75;17.50;14.50
29460;PMS7003;16428;47.836;35.106;2023-10-19T03:39:52;15.25;15.25;12.00
29460;PMS7003;16428;47.836;35.106;2023-10-19T03:42:24;20.50;17.50;15.00
29460;PMS7003;16428;47.836;35.106;2023-10-19T03:44:53;21.50;18.00;13.50
29460;PMS7003;16428;47.836;35.106;2023-10-19T03:47:22;22.25;17.25;10.00
29460;PMS7003;16428;47.836;35.106;2023-10-19T03:49:53;16.75;14.00;12.50
29460;PMS7003;16428;47.836;35.106;2023-10-19T03:52:20;21.75;17.50;13.75
29460;PMS7003;16428;47.836;35.106;2023-10-19T03:54:49;21.25;15.00;13.25
29460;PMS7003;16428;47.836;35.106;2023-10-19T03:57:17;20.75;17.00;14.75
29460;PMS7003;16428;47.836;35.106;2023-10-19T03:59:56;21.75;21.00;15.00
29460;PMS7003;16428;47.836;35.106;2023-10-19T04:02:24;28.50;20.75;13.75
29460;PMS7003;16428;47.836;35.106;2023-10-19T04:04:54;18.00;18.00;14.75
29460;PMS7003;16428;47.836;35.106;2023-10-19T04:07:23;22.75;20.25;15.25
29460;PMS7003;16428;47.836;35.106;2023-10-19T04:09:53;18.75;18.75;14.00
29460;PMS7003;16428;47.836;35.106;2023-10-19T04:12:37;22.50;18.25;15.50
29460;PMS7003;16428;47.836;35.106;2023-10-19T04:15:08;23.75;22.75;17.25
29460;PMS7003;16428;47.836;35.106;2023-10-19T04:17:39;22.00;19.25;14.25
29460;PMS7003;16428;47.836;35.106;2023-10-19T04:20:07;14.75;14.75;11.00
29460;PMS7003;16428;47.836;35.106;2023-10-19T04:22:44;20.00;18.50;13.75
29460;PMS7003;16428;47.836;35.106;2023-10-19T04:25:13;24.50;20.75;16.75
29460;PMS7003;16428;47.836;35.106;2023-10-19T04:27:46;19.75;19.00;15.00
29460;PMS7003;16428;47.836;35.106;2023-10-19T04:30:14;18.00;16.00;12.00
29460;PMS7003;16428;47.836;35.106;2023-10-19T04:32:49;19.50;18.50;14.00
29460;PMS7003;16428;47.836;35.106;2023-10-19T04:35:18;23.75;21.25;16.75
29460;PMS7003;16428;47.836;35.106;2023-10-19T04:37:51;23.75;19.50;15.50
29460;PMS7003;16428;47.836;35.106;2023-10-19T04:40:20;21.25;20.25;16.50
29460;PMS7003;16428;47.836;35.106;2023-10-19T04:42:50;19.75;18.75;14.00
29460;PMS7003;16428;47.836;35.106;2023-10-19T04:45:18;23.50;21.75;16.50
29460;PMS7003;16428;47.836;35.106;2023-10-19T04:47:45;23.25;20.50;16.50
29460;PMS7003;16428;47.836;35.106;2023-10-19T04:50:19;17.25;14.75;11.00
29460;PMS7003;16428;47.836;35.106;2023-10-19T04:52:46;23.50;20.00;16.75
29460;PMS7003;16428;47.836;35.106;2023-10-19T04:55:14;19.50;19.50;14.00
29460;PMS7003;16428;47.836;35.106;2023-10-19T04:57:41;26.50;21.00;16.75
29460;PMS7003;16428;47.836;35.106;2023-10-19T05:00:08;23.75;18.50;16.00
29460;PMS7003;16428;47.836;35.106;2023-10-19T05:02:41;19.75;16.50;13.00
29460;PMS7003;16428;47.836;35.106;2023-10-19T05:05:09;23.00;20.00;14.50
29460;PMS7003;16428;47.836;35.106;2023-10-19T05:07:37;32.25;25.75;18.00
29460;PMS7003;16428;47.836;35.106;2023-10-19T05:10:05;20.75;19.25;14.75
29460;PMS7003;16428;47.836;35.106;2023-10-19T05:12:33;23.25;18.75;15.75
29460;PMS7003;16428;47.836;35.106;2023-10-19T05:15:00;24.00;21.75;17.00
29460;PMS7003;16428;47.836;35.106;2023-10-19T05:17:28;22.25;19.50;15.25
29460;PMS7003;16428;47.836;35.106;2023-10-19T05:19:55;19.50;14.00;11.00
29460;PMS7003;16428;47.836;35.106;2023-10-19T05:22:23;22.50;18.00;14.50
29460;PMS7003;16428;47.836;35.106;2023-10-19T05:24:56;21.75;16.50;13.50
29460;PMS7003;16428;47.836;35.106;2023-10-19T05:27:24;20.75;18.00;14.50
29460;PMS7003;16428;47.836;35.106;2023-10-19T05:29:51;23.50;17.25;12.25
29460;PMS7003;16428;47.836;35.106;2023-10-19T05:32:19;22.50;19.25;13.00
29460;PMS7003;16428;47.836;35.106;2023-10-19T05:34:46;23.75;19.75;14.00
29460;PMS7003;16428;47.836;35.106;2023-10-19T05:37:14;22.25;22.25;17.25
29460;PMS7003;16428;47.836;35.106;2023-10-19T05:39:43;18.00;18.00;13.75
29460;PMS7003;16428;47.836;35.106;2023-10-19T05:42:11;31.75;23.25;15.50
29460;PMS7003;16428;47.836;35.106;2023-10-19T05:44:38;20.75;18.75;15.50
29460;PMS7003;16428;47.836;35.106;2023-10-19T05:47:05;19.50;19.50;15.00
29460;PMS7003;16428;47.836;35.106;2023-10-19T05:49:33;27.00;25.50;18.25
29460;PMS7003;16428;47.836;35.106;2023-10-19T05:52:00;28.00;21.00;16.00
29460;PMS7003;16428;47.836;35.106;2023-10-19T05:54:31;20.75;18.50;14.75
29460;PMS7003;16428;47.836;35.106;2023-10-19T05:56:58;18.50;18.50;13.50
29460;PMS7003;16428;47.836;35.106;2023-10-19T05:59:25;16.00;14.25;11.75
29460;PMS7003;16428;47.836;35.106;2023-10-19T06:01:53;16.50;16.50;13.00
29460;PMS7003;16428;47.836;35.106;2023-10-19T06:04:21;18.25;17.00;14.25
29460;PMS7003;16428;47.836;35.106;2023-10-19T06:06:48;20.25;16.00;12.00
29460;PMS7003;16428;47.836;35.106;2023-10-19T06:09:16;26.25;20.75;17.00
29460;PMS7003;16428;47.836;35.106;2023-10-19T06:11:44;18.75;18.75;13.75
29460;PMS7003;16428;47.836;35.106;2023-10-19T06:14:12;17.00;16.75;14.50
29460;PMS7003;16428;47.836;35.106;2023-10-19T06:16:40;14.75;14.75;12.75
29460;PMS7003;16428;47.836;35.106;2023-10-19T06:19:07;17.75;17.75;14.00
29460;PMS7003;16428;47.836;35.106;2023-10-19T06:21:36;17.75;16.75;14.25
29460;PMS7003;16428;47.836;35.106;2023-10-19T06:24:03;14.50;14.50;11.50
29460;PMS7003;16428;47.836;35.106;2023-10-19T06:26:31;16.75;14.25;12.00
29460;PMS7003;16428;47.836;35.106;2023-10-19T06:28:58;21.50;12.25;9.25
29460;PMS7003;16428;47.836;35.106;2023-10-19T06:31:26;31.75;29.75;21.50
29460;PMS7003;16428;47.836;35.106;2023-10-19T06:33:56;16.75;15.75;12.00
29460;PMS7003;16428;47.836;35.106;2023-10-19T06:36:24;9.25;9.25;7.50
29460;PMS7003;16428;47.836;35.106;2023-10-19T06:38:52;15.25;12.00;9.75
29460;PMS7003;16428;47.836;35.106;2023-10-19T06:41:21;10.25;9.50;7.00
29460;PMS7003;16428;47.836;35.106;2023-10-19T06:43:49;10.00;9.00;8.00
29460;PMS7003;16428;47.836;35.106;2023-10-19T06:46:17;9.33;9.33;9.00
29460;PMS7003;16428;47.836;35.106;2023-10-19T06:48:44;10.00;10.00;7.67
29460;PMS7003;16428;47.836;35.106;2023-10-19T06:51:11;9.33;9.33;7.67
29460;PMS7003;16428;47.836;35.106;2023-10-19T06:53:39;9.33;7.67;5.67
29460;PMS7003;16428;47.836;35.106;2023-10-19T06:56:06;7.00;7.00;6.33
29460;PMS7003;16428;47.836;35.106;2023-10-19T06:58:33;8.00;8.00;7.33
29460;PMS7003;16428;47.836;35.106;2023-10-19T07:01:01;8.33;8.33;7.67
29460;PMS7003;16428;47.836;35.106;2023-10-19T07:03:35;10.00;10.00;9.00
29460;PMS7003;16428;47.836;35.106;2023-10-19T07:06:03;5.33;5.33;4.67
29460;PMS7003;16428;47.836;35.106;2023-10-19T07:08:36;10.00;8.00;7.00
29460;PMS7003;16428;47.836;35.106;2023-10-19T07:11:03;9.67;9.33;7.67
29460;PMS7003;16428;47.836;35.106;2023-10-19T07:13:30;10.33;8.00;7.67
29460;PMS7003;16428;47.836;35.106;2023-10-19T07:16:00;12.67;10.33;7.00
29460;PMS7003;16428;47.836;35.106;2023-10-19T07:18:28;8.00;8.00;7.00
29460;PMS7003;16428;47.836;35.106;2023-10-19T07:20:55;11.00;9.33;7.00
29460;PMS7003;16428;47.836;35.106;2023-10-19T07:23:30;6.50;5.50;5.25
29460;PMS7003;16428;47.836;35.106;2023-10-19T07:25:58;7.75;7.75;6.75
29460;PMS7003;16428;47.836;35.106;2023-10-19T07:28:30;8.00;8.00;7.67
29460;PMS7003;16428;47.836;35.106;2023-10-19T07:30:58;7.33;7.33;6.00
29460;PMS7003;16428;47.836;35.106;2023-10-19T07:33:47;8.25;8.25;6.25
29460;PMS7003;16428;47.836;35.106;2023-10-19T07:36:17;10.25;10.25;8.75
29460;PMS7003;16428;47.836;35.106;2023-10-19T07:38:45;8.50;7.00;5.75
29460;PMS7003;16428;47.836;35.106;2023-10-19T07:41:14;11.00;7.25;6.25
29460;PMS7003;16428;47.836;35.106;2023-10-19T07:43:41;10.50;9.25;7.50
29460;PMS7003;16428;47.836;35.106;2023-10-19T07:46:10;11.75;9.00;7.00
29460;PMS7003;16428;47.836;35.106;2023-10-19T07:48:39;11.00;8.50;6.75
29460;PMS7003;16428;47.836;35.106;2023-10-19T07:51:06;9.00;9.00;7.75
29460;PMS7003;16428;47.836;35.106;2023-10-19T07:53:35;7.25;7.25;7.00
29460;PMS7003;16428;47.836;35.106;2023-10-19T07:56:02;11.25;9.25;7.75
29460;PMS7003;16428;47.836;35.106;2023-10-19T07:58:30;13.75;10.25;7.50
29460;PMS7003;16428;47.836;35.106;2023-10-19T08:00:58;6.50;6.50;6.00
29460;PMS7003;16428;47.836;35.106;2023-10-19T08:03:25;8.75;8.75;7.00
29460;PMS7003;16428;47.836;35.106;2023-10-19T08:05:52;7.50;7.50;6.50
29460;PMS7003;16428;47.836;35.106;2023-10-19T08:08:19;9.50;7.75;7.25
29460;PMS7003;16428;47.836;35.106;2023-10-19T08:10:46;9.00;9.00;8.00
29460;PMS7003;16428;47.836;35.106;2023-10-19T08:13:14;9.75;8.75;7.25
29460;PMS7003;16428;47.836;35.106;2023-10-19T08:15:41;9.75;9.75;7.25
29460;PMS7003;16428;47.836;35.106;2023-10-19T08:18:08;12.75;9.25;8.25
29460;PMS7003;16428;47.836;35.106;2023-10-19T08:20:39;7.75;7.50;6.00
29460;PMS7003;16428;47.836;35.106;2023-10-19T08:23:07;3.50;3.25;3.00
29460;PMS7003;16428;47.836;35.106;2023-10-19T08:25:34;8.00;8.00;7.00
29460;PMS7003;16428;47.836;35.106;2023-10-19T08:28:21;10.00;10.00;7.25
29460;PMS7003;16428;47.836;35.106;2023-10-19T08:30:49;10.75;8.50;7.25
29460;PMS7003;16428;47.836;35.106;2023-10-19T08:33:42;6.25;6.25;4.75
29460;PMS7003;16428;47.836;35.106;2023-10-19T08:36:15;9.25;8.25;6.75
29460;PMS7003;16428;47.836;35.106;2023-10-19T08:38:46;3.25;3.00;3.00
29460;PMS7003;16428;47.836;35.106;2023-10-19T08:41:14;9.00;6.75;5.00
29460;PMS7003;16428;47.836;35.106;2023-10-19T08:43:42;6.75;6.75;6.50
29460;PMS7003;16428;47.836;35.106;2023-10-19T08:46:10;7.00;7.00;6.00
29460;PMS7003;16428;47.836;35.106;2023-10-19T08:48:39;8.00;7.75;6.75
29460;PMS7003;16428;47.836;35.106;2023-10-19T08:51:08;8.00;8.00;7.00
29460;PMS7003;16428;47.836;35.106;2023-10-19T08:53:37;6.25;6.25;4.75
29460;PMS7003;16428;47.836;35.106;2023-10-19T08:56:08;7.25;7.00;6.25
29460;PMS7003;16428;47.836;35.106;2023-10-19T08:58:36;10.25;7.75;6.50
29460;PMS7003;16428;47.836;35.106;2023-10-19T09:01:04;7.25;7.25;6.25
29460;PMS7003;16428;47.836;35.106;2023-10-19T09:03:34;6.25;6.25;5.50
29460;PMS7003;16428;47.836;35.106;2023-10-19T09:06:02;9.00;9.00;6.25
29460;PMS7003;16428;47.836;35.106;2023-10-19T09:08:32;5.75;5.75;5.00
29460;PMS7003;16428;47.836;35.106;2023-10-19T09:11:09;6.75;5.50;4.75
29460;PMS7003;16428;47.836;35.106;2023-10-19T09:13:44;5.25;5.25;4.50
29460;PMS7003;16428;47.836;35.106;2023-10-19T09:16:19;9.00;8.00;6.33
29460;PMS7003;16428;47.836;35.106;2023-10-19T09:18:48;6.25;6.25;5.75
29460;PMS7003;16428;47.836;35.106;2023-10-19T09:21:16;7.75;5.25;4.25
29460;PMS7003;16428;47.836;35.106;2023-10-19T09:23:55;3.75;3.75;3.25
29460;PMS7003;16428;47.836;35.106;2023-10-19T09:26:23;5.00;5.00;4.25
29460;PMS7003;16428;47.836;35.106;2023-10-19T09:28:52;4.50;4.50;4.00
29460;PMS7003;16428;47.836;35.106;2023-10-19T09:31:21;7.25;5.00;4.75
29460;PMS7003;16428;47.836;35.106;2023-10-19T09:33:52;6.25;6.25;4.75
29460;PMS7003;16428;47.836;35.106;2023-10-19T09:36:21;7.00;7.00;5.00
29460;PMS7003;16428;47.836;35.106;2023-10-19T09:38:52;6.50;5.25;4.25
29460;PMS7003;16428;47.836;35.106;2023-10-19T09:41:21;7.75;4.75;4.00
29460;PMS7003;16428;47.836;35.106;2023-10-19T09:43:49;5.50;5.50;3.75
29460;PMS7003;16428;47.836;35.106;2023-10-19T09:46:26;5.00;4.75;4.00
29460;PMS7003;16428;47.836;35.106;2023-10-19T09:48:56;5.75;5.75;5.00
29460;PMS7003;16428;47.836;35.106;2023-10-19T09:51:23;4.75;4.75;4.00
29460;PMS7003;16428;47.836;35.106;2023-10-19T09:53:57;4.25;4.25;3.50
29460;PMS7003;16428;47.836;35.106;2023-10-19T09:56:38;5.25;4.25;3.25
29460;PMS7003;16428;47.836;35.106;2023-10-19T09:59:13;4.25;4.25;3.75
29460;PMS7003;16428;47.836;35.106;2023-10-19T10:02:03;6.50;6.50;5.50
29460;PMS7003;16428;47.836;35.106;2023-10-19T10:04:42;3.00;3.00;3.00
29460;PMS7003;16428;47.836;35.106;2023-10-19T10:07:12;5.75;5.75;4.75
29460;PMS7003;16428;47.836;35.106;2023-10-19T10:09:46;3.25;3.25;3.25
29460;PMS7003;16428;47.836;35.106;2023-10-19T10:12:22;5.00;5.00;4.00
29460;PMS7003;16428;47.836;35.106;2023-10-19T10:17:25;6.25;3.75;3.00
29460;PMS7003;16428;47.836;35.106;2023-10-19T10:23:16;5.00;5.00;4.75
29460;PMS7003;16428;47.836;35.106;2023-10-19T10:25:49;3.75;3.75;3.50
29460;PMS7003;16428;47.836;35.106;2023-10-19T10:28:17;7.00;4.75;3.75
29460;PMS7003;16428;47.836;35.106;2023-10-19T10:31:06;4.00;4.00;3.00
29460;PMS7003;16428;47.836;35.106;2023-10-19T10:36:18;3.50;3.50;3.00
29460;PMS7003;16428;47.836;35.106;2023-10-19T10:38:47;7.75;5.75;4.25
29460;PMS7003;16428;47.836;35.106;2023-10-19T10:41:22;3.00;3.00;2.50
29460;PMS7003;16428;47.836;35.106;2023-10-19T10:43:56;2.00;2.00;1.25
29460;PMS7003;16428;47.836;35.106;2023-10-19T10:46:26;6.25;5.50;4.75
29460;PMS7003;16428;47.836;35.106;2023-10-19T10:48:56;2.75;2.75;1.75
29460;PMS7003;16428;47.836;35.106;2023-10-19T10:51:23;3.50;3.50;2.50
29460;PMS7003;16428;47.836;35.106;2023-10-19T10:53:54;5.00;3.75;2.75
29460;PMS7003;16428;47.836;35.106;2023-10-19T10:56:22;2.00;2.00;2.00
29460;PMS7003;16428;47.836;35.106;2023-10-19T10:58:51;2.75;1.75;1.00
29460;PMS7003;16428;47.836;35.106;2023-10-19T11:01:28;4.75;4.00;3.50
29460;PMS7003;16428;47.836;35.106;2023-10-19T11:04:05;4.75;4.75;4.50
29460;PMS7003;16428;47.836;35.106;2023-10-19T11:06:45;3.00;3.00;3.00
29460;PMS7003;16428;47.836;35.106;2023-10-19T11:09:14;3.00;3.00;2.00
29460;PMS7003;16428;47.836;35.106;2023-10-19T11:11:51;2.75;2.75;2.00
29460;PMS7003;16428;47.836;35.106;2023-10-19T11:14:21;4.00;4.00;3.00
29460;PMS7003;16428;47.836;35.106;2023-10-19T11:16:53;3.50;3.50;3.25
29460;PMS7003;16428;47.836;35.106;2023-10-19T11:19:20;7.00;4.75;4.00
29460;PMS7003;16428;47.836;35.106;2023-10-19T11:21:54;2.25;2.25;1.75
29460;PMS7003;16428;47.836;35.106;2023-10-19T11:24:26;3.00;3.00;3.00
29460;PMS7003;16428;47.836;35.106;2023-10-19T11:26:57;2.75;2.75;2.75
29460;PMS7003;16428;47.836;35.106;2023-10-19T11:29:24;2.25;2.25;2.25
29460;PMS7003;16428;47.836;35.106;2023-10-19T11:31:58;1.75;1.75;1.00
29460;PMS7003;16428;47.836;35.106;2023-10-19T11:34:30;3.50;3.50;3.00
29460;PMS7003;16428;47.836;35.106;2023-10-19T11:36:58;4.25;4.25;3.00
29460;PMS7003;16428;47.836;35.106;2023-10-19T11:39:30;4.00;4.00;4.00
29460;PMS7003;16428;47.836;35.106;2023-10-19T11:41:57;6.00;6.00;4.25
29460;PMS7003;16428;47.836;35.106;2023-10-19T11:44:25;3.25;3.00;3.00
29460;PMS7003;16428;47.836;35.106;2023-10-19T11:46:52;1.50;1.50;1.50
29460;PMS7003;16428;47.836;35.106;2023-10-19T11:49:19;3.75;3.00;2.50
29460;PMS7003;16428;47.836;35.106;2023-10-19T11:51:50;3.50;3.00;2.50
29460;PMS7003;16428;47.836;35.106;2023-10-19T11:54:18;3.75;3.00;2.75
29460;PMS7003;16428;47.836;35.106;2023-10-19T11:56:45;4.25;4.25;4.00
29460;PMS7003;16428;47.836;35.106;2023-10-19T11:59:13;4.00;4.00;3.00
29460;PMS7003;16428;47.836;35.106;2023-10-19T12:01:42;3.00;3.00;3.00
29460;PMS7003;16428;47.836;35.106;2023-10-19T12:04:12;4.75;4.75;4.00
29460;PMS7003;16428;47.836;35.106;2023-10-19T12:06:40;2.75;2.75;2.50
29460;PMS7003;16428;47.836;35.106;2023-10-19T12:09:09;4.75;4.75;3.75
29460;PMS7003;16428;47.836;35.106;2023-10-19T12:11:42;3.00;3.00;2.25
29460;PMS7003;16428;47.836;35.106;2023-10-19T12:14:14;4.75;4.75;3.50
29460;PMS7003;16428;47.836;35.106;2023-10-19T12:16:42;3.75;3.75;3.50
29460;PMS7003;16428;47.836;35.106;2023-10-19T12:19:09;2.50;2.50;2.00
29460;PMS7003;16428;47.836;35.106;2023-10-19T12:21:36;2.75;2.75;2.75
29460;PMS7003;16428;47.836;35.106;2023-10-19T12:24:08;2.75;2.75;2.50
29460;PMS7003;16428;47.836;35.106;2023-10-19T12:26:35;2.75;2.75;2.00
29460;PMS7003;16428;47.836;35.106;2023-10-19T12:29:03;3.75;3.75;3.00
29460;PMS7003;16428;47.836;35.106;2023-10-19T12:31:35;3.75;3.75;2.75
29460;PMS7003;16428;47.836;35.106;2023-10-19T12:34:04;1.00;1.00;1.00
29460;PMS7003;16428;47.836;35.106;2023-10-19T12:36:34;3.00;3.00;2.75
29460;PMS7003;16428;47.836;35.106;2023-10-19T12:39:01;0.25;0.00;0.00
29460;PMS7003;16428;47.836;35.106;2023-10-19T12:41:34;3.25;3.25;3.00
29460;PMS7003;16428;47.836;35.106;2023-10-19T12:44:01;5.00;3.00;2.00
29460;PMS7003;16428;47.836;35.106;2023-10-19T12:46:35;2.75;2.75;2.00
29460;PMS7003;16428;47.836;35.106;2023-10-19T12:49:05;4.75;4.00;3.50
29460;PMS7003;16428;47.836;35.106;2023-10-19T12:51:35;4.00;4.00;3.00
29460;PMS7003;16428;47.836;35.106;2023-10-19T12:54:02;5.00;3.00;2.75
29460;PMS7003;16428;47.836;35.106;2023-10-19T12:56:30;3.75;3.75;3.50
29460;PMS7003;16428;47.836;35.106;2023-10-19T12:59:00;3.75;3.50;3.50
29460;PMS7003;16428;47.836;35.106;2023-10-19T13:01:27;3.00;0.75;0.75
29460;PMS7003;16428;47.836;35.106;2023-10-19T13:03:55;4.75;4.75;4.75
29460;PMS7003;16428;47.836;35.106;2023-10-19T13:06:23;3.00;3.00;3.00
29460;PMS7003;16428;47.836;35.106;2023-10-19T13:08:56;3.00;3.00;3.00
29460;PMS7003;16428;47.836;35.106;2023-10-19T13:11:24;2.25;2.25;2.25
29460;PMS7003;16428;47.836;35.106;2023-10-19T13:13:51;2.00;2.00;1.75
29460;PMS7003;16428;47.836;35.106;2023-10-19T13:16:18;5.25;5.25;4.25
29460;PMS7003;16428;47.836;35.106;2023-10-19T13:18:46;4.50;4.50;4.00
29460;PMS7003;16428;47.836;35.106;2023-10-19T13:21:13;4.25;4.25;3.25
29460;PMS7003;16428;47.836;35.106;2023-10-19T13:23:48;3.50;3.50;2.50
29460;PMS7003;16428;47.836;35.106;2023-10-19T13:26:15;5.00;5.00;4.75
29460;PMS7003;16428;47.836;35.106;2023-10-19T13:28:44;2.25;2.25;1.25
29460;PMS7003;16428;47.836;35.106;2023-10-19T13:31:12;4.00;2.75;2.25
29460;PMS7003;16428;47.836;35.106;2023-10-19T13:33:42;3.25;3.25;3.00
29460;PMS7003;16428;47.836;35.106;2023-10-19T13:36:11;3.50;3.50;2.75
29460;PMS7003;16428;47.836;35.106;2023-10-19T13:38:40;4.00;4.00;3.75
29460;PMS7003;16428;47.836;35.106;2023-10-19T13:41:08;3.75;3.75;3.00
29460;PMS7003;16428;47.836;35.106;2023-10-19T13:43:39;4.00;4.00;3.00
29460;PMS7003;16428;47.836;35.106;2023-10-19T13:46:07;4.00;4.00;3.25
29460;PMS7003;16428;47.836;35.106;2023-10-19T13:48:34;2.75;2.75;1.75
29460;PMS7003;16428;47.836;35.106;2023-10-19T13:51:02;5.00;5.00;4.00
29460;PMS7003;16428;47.836;35.106;2023-10-19T13:53:40;2.50;2.50;2.25
29460;PMS7003;16428;47.836;35.106;2023-10-19T13:56:08;2.75;2.75;2.50
29460;PMS7003;16428;47.836;35.106;2023-10-19T13:58:37;4.25;4.25;2.25
29460;PMS7003;16428;47.836;35.106;2023-10-19T14:01:07;6.25;5.00;3.75
29460;PMS7003;16428;47.836;35.106;2023-10-19T14:03:36;6.00;5.00;4.00
29460;PMS7003;16428;47.836;35.106;2023-10-19T14:06:13;5.25;4.50;4.50
29460;PMS7003;16428;47.836;35.106;2023-10-19T14:08:41;6.25;4.25;3.25
29460;PMS7003;16428;47.836;35.106;2023-10-19T14:11:08;5.25;3.75;3.75
29460;PMS7003;16428;47.836;35.106;2023-10-19T14:13:36;4.00;4.00;3.75
29460;PMS7003;16428;47.836;35.106;2023-10-19T14:16:06;5.00;4.00;3.00
29460;PMS7003;16428;47.836;35.106;2023-10-19T14:18:38;6.00;3.75;3.25
29460;PMS7003;16428;47.836;35.106;2023-10-19T14:21:15;1.25;1.25;0.75